Time;durP1;ratioP1;P1;durP2;ratioP2;P2;SDS_P1;SDS_P2;PMS_P1;PMS_P2;Temp;Humidity;BMP_temperature;BMP_pressure;BME280_temperature;BME280_humidity;BME280_pressure;Samples;Min_cycle;Max_cycle;Signal;HPM_P1;HPM_P2
2021/05/20 00:00:48;;;;;;;4.80;2.92;;;9.00;99.90;;;;;;5048354;28;20021;-75
2021/05/20 00:03:14;;;;;;;4.90;2.72;;;8.90;99.90;;;;;;5058979;28;20033;-75
2021/05/20 00:05:40;;;;;;;6.15;2.88;;;8.80;99.90;;;;;;5058462;28;20060;-75
2021/05/20 00:08:05;;;;;;;4.78;3.20;;;9.00;99.90;;;;;;5058828;28;20055;-75
2021/05/20 00:10:31;;;;;;;4.07;3.22;;;9.00;99.90;;;;;;5057690;28;20396;-75
2021/05/20 00:12:57;;;;;;;3.35;2.70;;;8.90;99.90;;;;;;5040125;28;20032;-75
2021/05/20 00:15:22;;;;;;;3.05;2.75;;;9.00;99.90;;;;;;5057812;28;20033;-75
2021/05/20 00:17:48;;;;;;;4.78;2.90;;;9.00;99.90;;;;;;5058953;28;20017;-76
2021/05/20 00:20:14;;;;;;;6.88;3.00;;;8.80;99.90;;;;;;5053460;28;20028;-75
2021/05/20 00:22:40;;;;;;;3.50;2.80;;;8.70;99.90;;;;;;5053359;28;20029;-75
2021/05/20 00:25:06;;;;;;;3.53;2.83;;;9.00;99.90;;;;;;5052996;28;20036;-75
2021/05/20 00:27:32;;;;;;;5.63;3.80;;;8.90;99.90;;;;;;5042287;28;20032;-75
2021/05/20 00:29:57;;;;;;;5.43;3.42;;;8.60;99.90;;;;;;5043154;28;20029;-75
2021/05/20 00:32:23;;;;;;;4.32;3.08;;;8.40;99.90;;;;;;5053118;28;20093;-75
2021/05/20 00:34:48;;;;;;;5.70;3.10;;;8.50;99.90;;;;;;5043136;28;20021;-75
2021/05/20 00:37:14;;;;;;;3.75;2.97;;;8.70;99.90;;;;;;5034132;28;20025;-75
2021/05/20 00:39:40;;;;;;;4.53;3.10;;;8.60;99.90;;;;;;5042164;28;20037;-75
2021/05/20 00:42:09;;;;;;;5.43;3.13;;;8.70;99.90;;;;;;5035850;28;20607;-75
2021/05/20 00:44:54;;;;;;;3.90;3.10;;;8.50;99.90;;;;;;5042922;28;20537;-75
2021/05/20 00:47:21;;;;;;;4.40;3.50;;;8.60;99.90;;;;;;5045292;28;20049;-75
2021/05/20 00:49:47;;;;;;;3.78;3.28;;;8.50;99.90;;;;;;5042655;28;20032;-76
2021/05/20 00:52:13;;;;;;;4.43;3.40;;;8.40;99.90;;;;;;5052551;28;20037;-76
2021/05/20 00:54:38;;;;;;;4.40;3.20;;;8.40;99.90;;;;;;5052475;28;20055;-76
2021/05/20 00:57:04;;;;;;;3.60;3.22;;;8.20;99.90;;;;;;5052384;28;20382;-76
2021/05/20 00:59:30;;;;;;;5.93;3.47;;;8.30;99.90;;;;;;5052021;28;20083;-76
2021/05/20 01:01:56;;;;;;;4.22;3.53;;;8.20;99.90;;;;;;5052123;28;20025;-75
2021/05/20 01:04:21;;;;;;;4.55;3.75;;;8.10;99.90;;;;;;5040682;28;20028;-75
2021/05/20 01:06:47;;;;;;;7.00;3.90;;;7.90;99.90;;;;;;5042558;28;20029;-75
2021/05/20 01:09:12;;;;;;;4.53;3.80;;;7.90;99.90;;;;;;5051659;28;20039;-75
2021/05/20 01:11:40;;;;;;;4.28;3.88;;;7.80;99.90;;;;;;5052053;28;20025;-75
2021/05/20 01:14:10;;;;;;;4.97;4.15;;;7.80;99.90;;;;;;5042742;28;20048;-75
2021/05/20 01:16:36;;;;;;;4.95;3.70;;;7.60;99.90;;;;;;5051927;28;20047;-74
2021/05/20 01:19:02;;;;;;;6.28;4.00;;;7.80;99.90;;;;;;5033764;28;20120;-73
2021/05/20 01:21:28;;;;;;;4.38;3.65;;;7.70;99.90;;;;;;5051878;28;20078;-73
2021/05/20 01:23:53;;;;;;;9.77;4.53;;;7.70;99.90;;;;;;5034024;28;20021;-74
2021/05/20 01:26:19;;;;;;;7.65;4.47;;;7.60;99.90;;;;;;5034295;28;20431;-74
2021/05/20 01:28:45;;;;;;;5.82;4.22;;;7.60;99.90;;;;;;5033898;28;20021;-73
2021/05/20 01:31:10;;;;;;;5.75;4.40;;;7.40;99.90;;;;;;5051615;28;20040;-74
2021/05/20 01:33:36;;;;;;;5.75;4.53;;;7.40;99.90;;;;;;5051784;28;20063;-75
2021/05/20 01:36:01;;;;;;;4.72;3.80;;;7.30;99.90;;;;;;5051800;28;20428;-74
2021/05/20 01:41:10;;;;;;;5.63;3.45;;;7.80;99.90;;;;;;5051511;28;20021;-74
2021/05/20 01:43:36;;;;;;;6.03;4.50;;;7.70;99.90;;;;;;5020642;28;20489;-74
2021/05/20 01:46:04;;;;;;;5.03;4.10;;;7.80;99.90;;;;;;5051608;28;20025;-76
2021/05/20 01:48:36;;;;;;;4.93;4.00;;;7.70;99.90;;;;;;5051464;28;20047;-76
2021/05/20 01:51:06;;;;;;;5.38;3.80;;;7.60;99.90;;;;;;5033572;28;20040;-76
2021/05/20 01:53:33;;;;;;;4.50;3.40;;;7.40;99.90;;;;;;5051634;28;20044;-76
2021/05/20 01:55:59;;;;;;;6.65;4.13;;;7.50;99.90;;;;;;5033705;28;20028;-76
2021/05/20 01:58:25;;;;;;;7.45;4.57;;;7.70;99.90;;;;;;5033686;28;20025;-76
2021/05/20 02:00:51;;;;;;;3.78;3.45;;;7.80;99.90;;;;;;5051283;28;20032;-75
2021/05/20 02:03:17;;;;;;;4.25;3.85;;;8.00;99.90;;;;;;5051468;28;20416;-75
2021/05/20 02:05:43;;;;;;;4.82;3.70;;;7.80;99.90;;;;;;5051472;28;20115;-74
2021/05/20 02:08:08;;;;;;;4.55;3.88;;;7.70;99.90;;;;;;5051356;28;20179;-73
2021/05/20 02:10:34;;;;;;;3.45;3.13;;;7.80;99.90;;;;;;5033254;28;20061;-73
2021/05/20 02:12:59;;;;;;;5.00;4.00;;;8.00;99.90;;;;;;5051353;28;20031;-73
2021/05/20 02:15:25;;;;;;;6.70;3.67;;;8.00;99.90;;;;;;5051246;28;20542;-75
2021/05/20 02:17:53;;;;;;;5.10;3.88;;;8.10;99.90;;;;;;5051317;28;20031;-75
2021/05/20 02:20:19;;;;;;;6.75;3.97;;;8.10;99.90;;;;;;5033217;28;20518;-76
2021/05/20 02:22:44;;;;;;;4.30;3.80;;;8.10;99.90;;;;;;5033786;28;20146;-76
2021/05/20 02:25:10;;;;;;;5.43;3.50;;;8.10;99.90;;;;;;5033345;28;20025;-75
2021/05/20 02:27:36;;;;;;;6.93;3.70;;;8.00;99.90;;;;;;5033301;28;20025;-76
2021/05/20 02:30:02;;;;;;;5.78;3.78;;;8.10;99.90;;;;;;5033054;28;20029;-76
2021/05/20 02:32:27;;;;;;;5.47;4.18;;;8.00;99.90;;;;;;5051223;28;20079;-75
2021/05/20 02:34:53;;;;;;;4.68;3.65;;;7.90;99.90;;;;;;5051131;28;20029;-75
2021/05/20 02:37:18;;;;;;;5.20;3.63;;;8.00;99.90;;;;;;5033202;28;20028;-76
2021/05/20 02:39:44;;;;;;;4.65;3.80;;;7.90;99.90;;;;;;5033259;28;20084;-76
2021/05/20 02:42:09;;;;;;;6.30;3.65;;;7.90;99.90;;;;;;5051154;28;20025;-76
2021/05/20 02:44:35;;;;;;;3.92;3.53;;;7.80;99.90;;;;;;5050983;28;20036;-76
2021/05/20 02:47:00;;;;;;;5.30;3.50;;;7.70;99.90;;;;;;5051050;28;20131;-76
2021/05/20 02:49:26;;;;;;;3.75;3.40;;;7.80;99.90;;;;;;5051028;28;20366;-76
2021/05/20 02:51:51;;;;;;;5.15;3.70;;;7.90;99.90;;;;;;5051461;28;20092;-76
2021/05/20 02:54:17;;;;;;;7.18;4.25;;;7.60;99.90;;;;;;5033585;28;20025;-76
2021/05/20 02:56:42;;;;;;;6.40;4.55;;;7.30;99.90;;;;;;5051211;28;20028;-75
2021/05/20 02:59:10;;;;;;;5.50;4.80;;;7.20;99.90;;;;;;5051055;28;20029;-75
2021/05/20 03:01:41;;;;;;;6.20;5.10;;;7.20;99.90;;;;;;5054535;28;20041;-75
2021/05/20 03:04:07;;;;;;;6.22;5.38;;;7.10;99.90;;;;;;5036706;28;20020;-74
2021/05/20 03:06:32;;;;;;;6.95;5.00;;;6.90;99.90;;;;;;5054505;28;20125;-74
2021/05/20 03:08:58;;;;;;;6.28;4.43;;;7.20;99.90;;;;;;5054259;28;20033;-74
2021/05/20 03:11:26;;;;;;;5.53;4.68;;;7.20;99.90;;;;;;5036369;28;20025;-76
2021/05/20 03:13:52;;;;;;;10.07;4.80;;;7.10;99.90;;;;;;5054267;28;20093;-74
2021/05/20 03:16:17;;;;;;;4.93;4.43;;;7.00;99.90;;;;;;5036408;28;20068;-75
2021/05/20 03:18:43;;;;;;;7.95;4.95;;;6.80;99.90;;;;;;5036210;28;20017;-76
2021/05/20 03:21:09;;;;;;;6.32;5.20;;;6.90;99.90;;;;;;5036160;28;20025;-76
2021/05/20 03:23:34;;;;;;;7.75;6.07;;;6.80;99.90;;;;;;5036269;28;20051;-73
2021/05/20 03:26:00;;;;;;;8.68;5.40;;;6.80;99.90;;;;;;5054098;28;20028;-73
2021/05/20 03:28:25;;;;;;;9.32;8.43;;;6.90;99.90;;;;;;5053766;28;20033;-74
2021/05/20 03:30:51;;;;;;;9.50;6.43;;;6.70;99.90;;;;;;5053663;28;20025;-74
2021/05/20 03:33:16;;;;;;;8.90;7.07;;;6.80;99.90;;;;;;5053944;28;20082;-75
2021/05/20 03:35:42;;;;;;;8.85;7.95;;;6.70;99.90;;;;;;5036007;28;20538;-74
2021/05/20 03:38:07;;;;;;;8.50;7.63;;;6.70;99.90;;;;;;5035800;28;20025;-74
2021/05/20 03:40:33;;;;;;;9.10;8.10;;;6.80;99.90;;;;;;5053678;28;20528;-74
2021/05/20 03:42:58;;;;;;;8.98;8.07;;;6.70;99.90;;;;;;5035838;28;20025;-74
2021/05/20 03:45:24;;;;;;;6.57;5.97;;;6.70;99.90;;;;;;5053656;28;20031;-75
2021/05/20 03:47:49;;;;;;;9.40;8.60;;;6.80;99.90;;;;;;5053572;28;20040;-74
2021/05/20 03:50:15;;;;;;;9.68;6.60;;;6.90;99.90;;;;;;5053376;28;20473;-75
2021/05/20 03:52:40;;;;;;;6.40;5.80;;;6.70;99.90;;;;;;5053448;28;20029;-74
2021/05/20 03:55:06;;;;;;;6.18;5.25;;;6.50;99.90;;;;;;5053533;28;20021;-74
2021/05/20 03:57:32;;;;;;;4.70;4.22;;;6.40;99.90;;;;;;5053303;28;20090;-75
2021/05/20 03:59:57;;;;;;;5.43;4.93;;;6.60;99.90;;;;;;5053292;28;20051;-74
2021/05/20 04:02:23;;;;;;;6.88;6.28;;;6.80;99.90;;;;;;5053309;28;20495;-73
2021/05/20 04:04:48;;;;;;;8.00;6.43;;;6.80;99.90;;;;;;5053367;28;20032;-73
2021/05/20 04:07:14;;;;;;;6.35;5.57;;;6.50;99.90;;;;;;5053342;28;20031;-74
2021/05/20 04:09:39;;;;;;;6.82;5.07;;;6.50;99.90;;;;;;5052853;28;20056;-74
2021/05/20 04:12:06;;;;;;;6.55;5.60;;;6.80;99.90;;;;;;5035223;28;20143;-74
2021/05/20 04:14:31;;;;;;;6.78;5.82;;;7.00;99.90;;;;;;5053214;28;20056;-74
2021/05/20 04:16:57;;;;;;;6.28;5.78;;;7.20;99.90;;;;;;5035168;28;20051;-76
2021/05/20 04:19:22;;;;;;;8.50;5.55;;;7.30;99.90;;;;;;5034976;28;20024;-75
2021/05/20 04:21:48;;;;;;;5.03;4.53;;;7.40;99.90;;;;;;5035260;28;20480;-75
2021/05/20 04:24:14;;;;;;;5.03;4.10;;;7.40;99.90;;;;;;5053038;28;20119;-76
2021/05/20 04:26:39;;;;;;;4.35;3.63;;;7.70;99.90;;;;;;5052702;28;20028;-75
2021/05/20 04:29:05;;;;;;;3.72;3.42;;;8.10;99.90;;;;;;5052341;28;20025;-74
2021/05/20 04:31:32;;;;;;;5.30;4.03;;;8.20;99.90;;;;;;5052875;28;20032;-75
2021/05/20 04:33:58;;;;;;;4.18;3.45;;;8.20;99.90;;;;;;5052833;28;20025;-74
2021/05/20 04:36:24;;;;;;;5.07;3.78;;;8.10;99.90;;;;;;5052604;28;20032;-74
2021/05/20 04:38:49;;;;;;;6.90;3.85;;;8.00;99.90;;;;;;5052732;28;20021;-76
2021/05/20 04:41:15;;;;;;;5.75;3.72;;;8.20;99.90;;;;;;5034414;28;20121;-76
2021/05/20 04:43:40;;;;;;;5.97;3.70;;;8.20;99.90;;;;;;5054322;28;20029;-75
2021/05/20 04:46:06;;;;;;;5.15;4.30;;;8.20;99.90;;;;;;5034825;28;20029;-75
2021/05/20 04:48:32;;;;;;;5.00;4.47;;;8.10;99.90;;;;;;5052463;28;20079;-77
2021/05/20 04:50:59;;;;;;;4.10;3.70;;;8.00;99.90;;;;;;5052133;28;20035;-76
2021/05/20 04:53:24;;;;;;;4.03;3.53;;;8.20;99.90;;;;;;5052495;28;20025;-75
2021/05/20 04:55:51;;;;;;;4.40;3.60;;;8.20;99.90;;;;;;5052387;28;20025;-75
2021/05/20 04:58:16;;;;;;;5.72;4.10;;;8.10;99.90;;;;;;5052278;28;20097;-74
2021/05/20 05:00:42;;;;;;;4.65;3.80;;;8.20;99.90;;;;;;5052153;28;20059;-75
2021/05/20 05:03:07;;;;;;;4.60;3.47;;;8.20;99.90;;;;;;5034367;28;20036;-75
2021/05/20 05:05:33;;;;;;;3.78;3.17;;;8.20;99.90;;;;;;5052196;28;20024;-75
2021/05/20 05:07:58;;;;;;;4.30;3.67;;;8.40;99.90;;;;;;5052009;28;20029;-75
2021/05/20 05:10:24;;;;;;;5.90;3.45;;;8.40;99.90;;;;;;5051799;28;20028;-75
2021/05/20 05:12:49;;;;;;;4.60;3.88;;;8.30;99.90;;;;;;5052102;28;20087;-76
2021/05/20 05:15:15;;;;;;;4.10;3.60;;;8.30;99.90;;;;;;5034246;28;20107;-75
2021/05/20 05:17:41;;;;;;;4.63;3.70;;;8.50;99.90;;;;;;5033965;28;20021;-75
2021/05/20 05:20:08;;;;;;;4.40;3.35;;;8.40;99.90;;;;;;5051670;28;20075;-76
2021/05/20 05:22:33;;;;;;;3.70;3.40;;;8.40;99.90;;;;;;5033577;28;20072;-75
2021/05/20 05:24:59;;;;;;;3.60;3.30;;;8.50;99.90;;;;;;5051760;28;20103;-75
2021/05/20 05:27:25;;;;;;;6.97;4.50;;;8.40;99.90;;;;;;5051725;28;20021;-75
2021/05/20 05:29:51;;;;;;;15.98;10.02;;;8.60;99.90;;;;;;5051366;28;20083;-75
2021/05/20 05:32:17;;;;;;;10.43;6.55;;;8.60;99.90;;;;;;5033901;28;20029;-75
2021/05/20 05:34:42;;;;;;;4.57;3.97;;;8.70;99.90;;;;;;5033966;28;20585;-73
2021/05/20 05:37:08;;;;;;;7.00;4.60;;;8.80;99.90;;;;;;5051774;28;20400;-73
2021/05/20 05:39:33;;;;;;;5.40;3.78;;;8.70;99.90;;;;;;5051274;28;20047;-73
2021/05/20 05:41:59;;;;;;;7.20;3.88;;;8.80;99.90;;;;;;5051688;28;20070;-74
2021/05/20 05:44:24;;;;;;;6.65;4.18;;;8.70;99.90;;;;;;5033697;28;20024;-73
2021/05/20 05:46:50;;;;;;;5.22;4.07;;;8.80;99.90;;;;;;5051703;28;20527;-73
2021/05/20 05:49:19;;;;;;;7.85;4.10;;;8.80;99.90;;;;;;5051167;28;20031;-73
2021/05/20 05:51:47;;;;;;;6.78;3.50;;;8.80;99.90;;;;;;5051394;28;20074;-74
2021/05/20 05:54:13;;;;;;;6.63;3.85;;;9.00;99.90;;;;;;5033640;28;20032;-74
2021/05/20 05:56:38;;;;;;;4.38;3.75;;;9.00;99.90;;;;;;5051514;28;20020;-75
2021/05/20 05:59:04;;;;;;;6.50;3.78;;;9.00;99.90;;;;;;5051275;28;20029;-75
2021/05/20 06:01:30;;;;;;;4.85;3.60;;;9.00;99.90;;;;;;5051449;28;20025;-74
2021/05/20 06:03:58;;;;;;;4.85;3.67;;;9.10;99.90;;;;;;5033683;28;20033;-74
2021/05/20 06:06:23;;;;;;;4.00;3.33;;;9.20;99.90;;;;;;5051432;28;20025;-74
2021/05/20 06:08:49;;;;;;;6.15;3.42;;;9.00;99.90;;;;;;5051502;28;20024;-75
2021/05/20 06:11:14;;;;;;;4.30;3.40;;;8.90;99.90;;;;;;5051217;28;20435;-75
2021/05/20 06:13:40;;;;;;;5.20;4.05;;;9.00;99.90;;;;;;5033121;28;20476;-76
2021/05/20 06:16:05;;;;;;;4.85;3.63;;;9.10;99.90;;;;;;5050210;28;20029;-75
2021/05/20 06:18:31;;;;;;;3.60;3.30;;;9.40;99.90;;;;;;5050461;28;20029;-75
2021/05/20 06:20:56;;;;;;;3.53;3.22;;;9.40;99.90;;;;;;5050392;28;20060;-75
2021/05/20 06:23:23;;;;;;;4.72;3.42;;;9.30;99.90;;;;;;5050969;28;20059;-75
2021/05/20 06:25:48;;;;;;;5.72;3.78;;;9.40;99.90;;;;;;5051311;28;20037;-75
2021/05/20 06:28:14;;;;;;;5.10;3.90;;;9.60;99.90;;;;;;5051004;28;20103;-75
2021/05/20 06:30:39;;;;;;;5.10;3.60;;;9.30;99.90;;;;;;5050829;28;20493;-75
2021/05/20 06:33:05;;;;;;;4.35;3.95;;;9.30;99.90;;;;;;5033153;28;20049;-75
2021/05/20 06:35:31;;;;;;;5.35;4.13;;;9.50;99.90;;;;;;5054560;28;20025;-78
2021/05/20 06:37:56;;;;;;;5.68;3.97;;;9.60;99.90;;;;;;5055113;28;20032;-76
2021/05/20 06:40:22;;;;;;;5.40;3.85;;;9.50;99.90;;;;;;5036614;28;20029;-76
2021/05/20 06:42:47;;;;;;;4.95;4.00;;;9.50;99.90;;;;;;5056668;28;20037;-74
2021/05/20 06:45:14;;;;;;;4.22;3.83;;;9.60;99.90;;;;;;5054322;28;20029;-74
2021/05/20 06:47:39;;;;;;;4.60;3.92;;;9.60;99.90;;;;;;5055647;28;20043;-74
2021/05/20 06:50:05;;;;;;;6.40;4.00;;;9.60;99.90;;;;;;5055940;28;20029;-74
2021/05/20 06:52:31;;;;;;;5.53;4.47;;;9.70;99.90;;;;;;5053466;28;20036;-74
2021/05/20 06:54:57;;;;;;;4.80;4.30;;;9.80;99.90;;;;;;5051415;28;20388;-78
2021/05/20 06:59:57;;;;;;;7.15;4.68;;;9.90;99.90;;;;;;5057249;28;20407;-79
2021/05/20 07:00:18;;;;;;;6.00;4.00;;;10.00;99.90;;;;;;5056709;28;20055;-77
2021/05/20 07:02:44;;;;;;;6.20;4.70;;;10.00;99.90;;;;;;5038022;28;20064;-77
2021/05/20 07:05:09;;;;;;;6.60;4.80;;;10.20;99.90;;;;;;5054499;28;20492;-74
2021/05/20 07:07:38;;;;;;;6.53;4.95;;;10.40;99.90;;;;;;5054290;28;20095;-74
2021/05/20 07:10:05;;;;;;;5.60;4.63;;;10.60;99.90;;;;;;5037880;28;20041;-75
2021/05/20 07:12:30;;;;;;;6.15;4.90;;;10.70;99.90;;;;;;5046323;28;20021;-75
2021/05/20 07:14:58;;;;;;;6.30;5.15;;;11.00;99.90;;;;;;5054341;28;20421;-74
2021/05/20 07:17:24;;;;;;;8.15;5.95;;;10.90;99.90;;;;;;5053977;28;20048;-75
2021/05/20 07:19:49;;;;;;;7.35;6.32;;;10.40;99.90;;;;;;5053908;28;20061;-74
2021/05/20 07:22:15;;;;;;;7.22;6.32;;;10.30;99.90;;;;;;5054139;28;20033;-76
2021/05/20 07:24:43;;;;;;;7.97;6.68;;;10.60;99.90;;;;;;5036177;28;20029;-76
2021/05/20 07:27:08;;;;;;;7.72;6.82;;;10.40;99.90;;;;;;5036182;28;20053;-76
2021/05/20 07:29:34;;;;;;;8.80;6.80;;;10.30;99.90;;;;;;5053815;28;20060;-75
2021/05/20 07:31:59;;;;;;;8.50;7.03;;;10.30;99.90;;;;;;5053945;28;20481;-75
2021/05/20 07:34:25;;;;;;;7.50;6.70;;;10.20;99.90;;;;;;5036064;28;20115;-74
2021/05/20 07:36:51;;;;;;;8.15;7.18;;;10.20;99.90;;;;;;5053136;28;20028;-74
2021/05/20 07:39:16;;;;;;;8.70;6.60;;;10.20;99.90;;;;;;5053392;28;20061;-74
2021/05/20 07:41:44;;;;;;;8.85;6.90;;;10.20;99.90;;;;;;5053463;28;20024;-74
2021/05/20 07:44:10;;;;;;;7.60;6.80;;;9.90;99.90;;;;;;5053081;28;20017;-74
2021/05/20 07:46:35;;;;;;;7.10;6.40;;;10.10;99.90;;;;;;5034851;28;20074;-75
2021/05/20 07:49:01;;;;;;;7.03;6.30;;;10.00;99.90;;;;;;5053247;28;20048;-75
2021/05/20 07:51:26;;;;;;;7.38;6.22;;;10.30;99.90;;;;;;5053305;28;20396;-75
2021/05/20 07:53:52;;;;;;;8.73;6.80;;;10.30;99.90;;;;;;5053331;28;20469;-75
2021/05/20 07:56:17;;;;;;;9.30;6.95;;;10.30;99.90;;;;;;5035360;28;20493;-75
2021/05/20 07:58:44;;;;;;;9.93;7.60;;;10.40;99.90;;;;;;5053113;28;20021;-75
2021/05/20 08:01:11;;;;;;;7.78;7.03;;;10.40;99.90;;;;;;5052903;28;20104;-76
2021/05/20 08:03:49;;;;;;;8.88;6.90;;;10.30;99.90;;;;;;5035285;28;20025;-76
2021/05/20 08:06:22;;;;;;;10.02;7.00;;;10.30;99.90;;;;;;5053024;28;20499;-75
2021/05/20 08:09:12;;;;;;;7.70;6.90;;;10.40;99.90;;;;;;5035050;28;20065;-75
2021/05/20 08:11:38;;;;;;;7.32;6.32;;;10.30;99.90;;;;;;5052997;28;20032;-75
2021/05/20 08:14:03;;;;;;;7.45;6.75;;;10.40;99.90;;;;;;5053003;28;20024;-75
2021/05/20 08:16:29;;;;;;;7.18;6.47;;;10.60;99.90;;;;;;5035301;28;20079;-75
2021/05/20 08:18:55;;;;;;;8.23;6.95;;;10.80;99.90;;;;;;5034983;28;20044;-75
2021/05/20 08:21:20;;;;;;;8.52;6.68;;;10.80;99.90;;;;;;5034867;28;20035;-74
2021/05/20 08:23:46;;;;;;;8.43;6.85;;;11.00;99.90;;;;;;5052750;28;20052;-74
2021/05/20 08:26:13;;;;;;;6.50;5.90;;;11.10;99.90;;;;;;5052564;28;20035;-74
2021/05/20 08:28:39;;;;;;;8.68;6.28;;;11.30;99.90;;;;;;5052673;28;20025;-74
2021/05/20 08:31:04;;;;;;;6.28;5.68;;;11.40;99.90;;;;;;5034594;28;20402;-74
2021/05/20 08:33:30;;;;;;;6.60;6.00;;;11.30;99.90;;;;;;5034780;28;20032;-74
2021/05/20 08:35:55;;;;;;;11.20;5.80;;;11.30;99.90;;;;;;5034734;28;20049;-74
2021/05/20 08:38:21;;;;;;;6.82;6.13;;;11.40;99.90;;;;;;5052590;28;20115;-76
2021/05/20 08:40:47;;;;;;;14.80;7.93;;;11.00;99.90;;;;;;5052189;28;20025;-76
2021/05/20 08:43:12;;;;;;;9.13;6.00;;;11.20;99.90;;;;;;5052414;28;20032;-76
2021/05/20 08:45:39;;;;;;;6.72;5.82;;;11.40;99.90;;;;;;5052451;28;20032;-76
2021/05/20 08:48:06;;;;;;;6.47;5.68;;;11.40;99.90;;;;;;5052318;28;20095;-76
2021/05/20 08:50:32;;;;;;;7.72;6.43;;;11.30;99.90;;;;;;5052084;28;20017;-76
2021/05/20 08:52:59;;;;;;;8.82;6.90;;;11.40;99.90;;;;;;5052220;28;20033;-76
2021/05/20 08:55:27;;;;;;;8.93;7.35;;;11.20;99.90;;;;;;5052171;28;20021;-75
2021/05/20 08:57:58;;;;;;;8.77;7.35;;;11.20;99.90;;;;;;5033644;28;20477;-76
2021/05/20 09:00:25;;;;;;;8.38;7.57;;;11.40;99.90;;;;;;5052130;28;20025;-76
2021/05/20 09:02:51;;;;;;;8.32;7.07;;;11.30;99.90;;;;;;5052133;28;20025;-76
2021/05/20 09:05:19;;;;;;;9.50;7.43;;;11.60;99.90;;;;;;5052275;28;20067;-76
2021/05/20 09:07:56;;;;;;;7.50;6.70;;;11.70;99.90;;;;;;5051939;28;20416;-76
2021/05/20 09:10:24;;;;;;;7.10;5.95;;;12.10;99.90;;;;;;5051849;28;20025;-76
2021/05/20 09:12:56;;;;;;;7.15;5.97;;;11.90;99.90;;;;;;5052076;28;20520;-76
2021/05/20 09:15:43;;;;;;;6.38;5.60;;;12.00;99.90;;;;;;5052104;28;20087;-76
2021/05/20 09:18:17;;;;;;;6.50;5.85;;;12.20;99.90;;;;;;5051945;28;20032;-76
2021/05/20 09:20:46;;;;;;;6.70;6.00;;;12.30;99.90;;;;;;5051583;28;20543;-76
2021/05/20 09:23:17;;;;;;;6.68;6.00;;;12.60;99.90;;;;;;5051817;28;20053;-76
2021/05/20 09:25:44;;;;;;;7.57;5.00;;;12.50;99.90;;;;;;5051793;28;20024;-75
2021/05/20 09:28:11;;;;;;;6.90;5.25;;;12.90;99.90;;;;;;5045772;28;20028;-75
2021/05/20 09:30:42;;;;;;;6.57;5.72;;;13.00;99.90;;;;;;5033534;28;20024;-75
2021/05/20 09:33:10;;;;;;;5.38;4.70;;;13.20;99.90;;;;;;5051554;28;20419;-74
2021/05/20 09:35:37;;;;;;;7.45;5.75;;;13.20;99.90;;;;;;5051786;28;20070;-75
2021/05/20 09:38:05;;;;;;;5.40;4.90;;;12.90;99.90;;;;;;5051652;28;20259;-75
2021/05/20 09:40:58;;;;;;;8.00;6.45;;;13.00;99.90;;;;;;5051464;28;20036;-75
2021/05/20 09:43:35;;;;;;;6.15;5.30;;;13.40;99.90;;;;;;5051656;28;20734;-75
2021/05/20 09:46:15;;;;;;;6.88;5.15;;;13.20;99.90;;;;;;5051629;28;20522;-75
2021/05/20 09:48:43;;;;;;;6.15;5.15;;;13.10;99.90;;;;;;5051537;28;20068;-75
2021/05/20 09:51:29;;;;;;;5.95;5.45;;;13.10;99.90;;;;;;5033357;28;20428;-75
2021/05/20 09:53:56;;;;;;;9.00;5.90;;;13.10;99.90;;;;;;5033820;28;20028;-75
2021/05/20 09:56:36;;;;;;;7.32;5.40;;;13.10;99.90;;;;;;5051506;28;20017;-75
2021/05/20 09:59:02;;;;;;;6.07;5.47;;;12.80;99.90;;;;;;5050883;28;20443;-75
2021/05/20 10:01:27;;;;;;;6.25;5.00;;;13.00;99.90;;;;;;5040755;28;20053;-74
2021/05/20 10:03:55;;;;;;;5.78;5.22;;;13.00;99.90;;;;;;5051346;28;20386;-75
2021/05/20 10:06:49;;;;;;;5.63;5.03;;;12.90;99.90;;;;;;5051151;28;20060;-75
2021/05/20 10:09:16;;;;;;;5.85;5.25;;;13.20;99.90;;;;;;5037528;28;20040;-74
2021/05/20 10:11:42;;;;;;;8.30;6.47;;;13.40;99.90;;;;;;5055374;28;20021;-75
2021/05/20 10:14:07;;;;;;;6.22;5.63;;;13.80;99.90;;;;;;5042325;28;20029;-75
2021/05/20 10:16:35;;;;;;;7.28;6.60;;;13.90;99.90;;;;;;5055214;28;20021;-75
2021/05/20 10:19:01;;;;;;;7.40;6.57;;;13.80;99.90;;;;;;5054739;28;20544;-75
2021/05/20 10:21:29;;;;;;;6.45;5.82;;;13.80;99.90;;;;;;5055131;28;20106;-75
2021/05/20 10:23:56;;;;;;;6.40;5.45;;;13.80;99.90;;;;;;5055106;28;20021;-74
2021/05/20 10:26:23;;;;;;;6.43;5.82;;;14.10;99.90;;;;;;5055157;28;20416;-75
2021/05/20 10:28:48;;;;;;;7.15;4.85;;;13.80;99.90;;;;;;5055100;28;20035;-75
2021/05/20 10:31:15;;;;;;;4.97;4.53;;;13.70;99.90;;;;;;5054826;28;20099;-74
2021/05/20 10:33:43;;;;;;;5.18;4.60;;;14.10;99.90;;;;;;5054963;28;20021;-75
2021/05/20 10:36:23;;;;;;;5.25;4.75;;;14.60;99.90;;;;;;5054756;28;20025;-75
2021/05/20 10:38:49;;;;;;;4.32;3.92;;;14.40;99.90;;;;;;5046069;28;20025;-75
2021/05/20 10:41:20;;;;;;;4.95;4.40;;;14.50;99.90;;;;;;5054682;28;20032;-74
2021/05/20 10:43:47;;;;;;;4.35;3.83;;;14.60;99.90;;;;;;5048209;28;20024;-74
2021/05/20 10:46:15;;;;;;;4.93;4.43;;;14.30;99.90;;;;;;5054992;28;20029;-74
2021/05/20 10:48:58;;;;;;;4.63;3.70;;;14.50;99.90;;;;;;5054674;28;20025;-75
2021/05/20 10:51:25;;;;;;;4.72;4.13;;;14.60;99.90;;;;;;5052698;28;20039;-75
2021/05/20 10:53:54;;;;;;;4.20;3.85;;;14.40;99.90;;;;;;5054925;28;20025;-74
2021/05/20 10:56:23;;;;;;;5.03;4.22;;;14.90;99.90;;;;;;5044290;28;20492;-74
2021/05/20 10:58:50;;;;;;;4.53;4.13;;;14.70;99.90;;;;;;5054535;28;20024;-74
2021/05/20 11:01:25;;;;;;;4.53;4.15;;;14.00;99.90;;;;;;5046246;28;20025;-74
2021/05/20 11:03:54;;;;;;;3.83;3.40;;;14.00;99.90;;;;;;5054370;28;20025;-74
2021/05/20 11:06:24;;;;;;;5.38;3.90;;;13.80;99.90;;;;;;5054260;28;20029;-74
2021/05/20 11:08:49;;;;;;;2.50;2.30;;;13.70;99.90;;;;;;5054165;28;20119;-74
2021/05/20 11:11:30;;;;;;;4.25;2.30;;;13.70;99.90;;;;;;5044362;28;20116;-74
2021/05/20 11:13:57;;;;;;;3.75;2.90;;;13.40;99.90;;;;;;5054219;28;20096;-74
2021/05/20 11:16:36;;;;;;;2.72;2.53;;;13.50;99.90;;;;;;5044631;28;20020;-74
2021/05/20 11:21:57;;;;;;;3.38;3.03;;;13.40;99.90;;;;;;5053827;28;20404;-74
2021/05/20 11:24:28;;;;;;;6.57;3.40;;;14.30;99.90;;;;;;5046913;28;20023;-74
2021/05/20 11:26:55;;;;;;;3.40;3.08;;;15.00;99.90;;;;;;5053922;28;20020;-74
2021/05/20 11:29:27;;;;;;;4.47;3.85;;;15.30;99.90;;;;;;5053707;28;20045;-74
2021/05/20 11:32:00;;;;;;;4.32;3.95;;;15.40;99.90;;;;;;5053878;28;20071;-74
2021/05/20 11:37:07;;;;;;;5.22;4.72;;;15.60;99.90;;;;;;5041958;28;20029;-75
2021/05/20 11:39:33;;;;;;;4.85;4.30;;;15.40;99.90;;;;;;5035753;28;20029;-75
2021/05/20 11:42:04;;;;;;;4.70;4.30;;;15.40;99.90;;;;;;5035894;28;20039;-75
2021/05/20 11:44:30;;;;;;;4.30;3.90;;;15.50;99.90;;;;;;5036239;28;20036;-75
2021/05/20 11:46:58;;;;;;;7.22;4.13;;;15.30;99.90;;;;;;5035863;28;20048;-75
2021/05/20 11:49:24;;;;;;;4.80;4.40;;;15.30;99.90;;;;;;5053360;28;20029;-76
2021/05/20 11:51:55;;;;;;;5.18;4.13;;;15.70;99.90;;;;;;5035790;28;20029;-76
2021/05/20 11:54:23;;;;;;;4.68;4.28;;;15.80;99.90;;;;;;5035657;28;20111;-75
2021/05/20 11:56:57;;;;;;;3.97;3.58;;;16.30;99.90;;;;;;5035637;28;20115;-74
2021/05/20 11:59:37;;;;;;;4.63;3.83;;;15.60;99.90;;;;;;5053194;28;20082;-73
2021/05/20 12:02:06;;;;;;;3.75;3.45;;;15.70;99.90;;;;;;5035607;28;20104;-76
2021/05/20 12:04:32;;;;;;;4.30;3.90;;;15.50;99.90;;;;;;5053466;28;20036;-75
2021/05/20 12:06:59;;;;;;;4.68;4.28;;;14.80;99.90;;;;;;5053456;28;20025;-76
2021/05/20 12:09:25;;;;;;;5.22;3.95;;;15.00;99.90;;;;;;5053024;28;20035;-75
2021/05/20 12:11:50;;;;;;;4.00;3.45;;;15.50;99.90;;;;;;5053011;28;20021;-75
2021/05/20 12:14:35;;;;;;;5.00;3.40;;;15.80;99.90;;;;;;5053249;28;20074;-75
2021/05/20 12:17:15;;;;;;;3.38;3.08;;;16.20;99.90;;;;;;5035214;28;20025;-75
2021/05/20 12:19:50;;;;;;;4.43;3.38;;;16.20;99.90;;;;;;5052947;28;20074;-75
2021/05/20 12:22:19;;;;;;;3.75;3.45;;;16.70;99.90;;;;;;5035269;28;20504;-76
2021/05/20 12:24:53;;;;;;;4.00;3.60;;;17.30;99.90;;;;;;5053074;28;20061;-75
2021/05/20 12:27:25;;;;;;;4.93;4.10;;;17.10;99.90;;;;;;5040402;28;20028;-75
2021/05/20 12:29:56;;;;;;;4.20;3.80;;;16.30;99.90;;;;;;5052585;28;20025;-75
2021/05/20 12:32:25;;;;;;;4.28;3.70;;;16.00;99.90;;;;;;5051730;28;20017;-75
2021/05/20 12:35:08;;;;;;;3.90;3.50;;;15.20;99.90;;;;;;5052784;28;20032;-75
2021/05/20 12:37:45;;;;;;;5.38;3.90;;;15.10;99.90;;;;;;5052672;28;20480;-75
2021/05/20 12:40:25;;;;;;;4.63;4.13;;;15.00;99.90;;;;;;5052894;28;20049;-75
2021/05/20 12:43:04;;;;;;;3.75;3.45;;;15.10;99.90;;;;;;5052678;28;20461;-76
2021/05/20 12:45:31;;;;;;;4.65;3.83;;;16.20;99.90;;;;;;5052548;28;20028;-76
2021/05/20 12:47:57;;;;;;;4.43;4.03;;;16.60;99.90;;;;;;5052462;28;20079;-76
2021/05/20 12:50:30;;;;;;;3.88;3.58;;;16.20;99.90;;;;;;5052723;28;20025;-76
2021/05/20 12:52:58;;;;;;;4.28;3.88;;;15.40;99.90;;;;;;5034419;28;20488;-76
2021/05/20 12:55:32;;;;;;;4.05;3.65;;;15.00;99.90;;;;;;5034460;28;20120;-75
2021/05/20 12:58:00;;;;;;;4.45;4.03;;;15.20;99.90;;;;;;5034217;28;20551;-76
2021/05/20 13:00:27;;;;;;;4.32;3.85;;;15.30;99.90;;;;;;5052107;28;20032;-76
2021/05/20 13:02:58;;;;;;;4.40;4.00;;;15.20;99.90;;;;;;5052301;28;20485;-76